createdAt,value
2018-07-14T00:02:06.207Z,8.95
2018-07-14T00:05:30.652Z,8.83
2018-07-14T00:08:55.091Z,8.55
2018-07-14T00:12:19.497Z,9.23
2018-07-14T00:15:43.940Z,8.60
2018-07-14T00:19:08.398Z,8.43
2018-07-14T00:22:32.837Z,8.15
2018-07-14T00:26:01.704Z,9.65
2018-07-14T00:29:26.170Z,8.48
2018-07-14T00:32:50.646Z,9.38
2018-07-14T00:36:15.078Z,8.98
2018-07-14T00:39:39.485Z,9.35
2018-07-14T00:43:03.912Z,8.95
2018-07-14T00:46:28.391Z,10.03
2018-07-14T00:49:52.806Z,11.12
2018-07-14T00:53:17.286Z,9.33
2018-07-14T00:56:41.733Z,8.50
2018-07-14T01:00:06.282Z,9.83
2018-07-14T01:03:30.744Z,9.90
2018-07-14T01:06:55.168Z,9.35
2018-07-14T01:10:19.607Z,10.23
2018-07-14T01:13:44.070Z,9.25
2018-07-14T01:17:08.475Z,10.88
2018-07-14T01:20:32.900Z,9.65
2018-07-14T01:23:57.354Z,10.60
2018-07-14T01:27:21.797Z,10.85
2018-07-14T01:30:46.252Z,9.90
2018-07-14T01:34:10.663Z,10.85
2018-07-14T01:37:35.179Z,10.30
2018-07-14T01:40:59.580Z,10.00
2018-07-14T01:44:23.987Z,11.18
2018-07-14T01:47:48.424Z,12.95
2018-07-14T01:51:12.855Z,9.98
2018-07-14T01:54:37.292Z,10.95
2018-07-14T01:58:01.828Z,11.03
2018-07-14T02:01:26.300Z,11.33
2018-07-14T02:04:50.806Z,10.75
2018-07-14T02:08:15.221Z,10.23
2018-07-14T02:11:39.663Z,11.22
2018-07-14T02:15:04.336Z,12.40
2018-07-14T02:18:28.754Z,12.53
2018-07-14T02:21:53.178Z,11.15
2018-07-14T02:25:17.598Z,11.95
2018-07-14T02:28:42.044Z,11.33
2018-07-14T02:32:06.497Z,12.25
2018-07-14T02:35:30.929Z,11.05
2018-07-14T02:38:55.412Z,13.08
2018-07-14T02:42:19.864Z,12.47
2018-07-14T02:45:44.314Z,12.73
2018-07-14T02:49:08.748Z,13.00
2018-07-14T02:52:33.197Z,11.73
2018-07-14T02:55:57.614Z,12.68
2018-07-14T02:59:22.119Z,11.73
2018-07-14T03:02:46.587Z,14.40
2018-07-14T03:06:11.036Z,14.18
2018-07-14T03:09:35.204Z,13.13
2018-07-14T03:12:59.790Z,14.30
2018-07-14T03:16:24.132Z,14.15
2018-07-14T03:19:48.586Z,13.95
2018-07-14T03:23:13.018Z,14.40
2018-07-14T03:26:37.438Z,14.03
2018-07-14T03:30:01.874Z,13.18
2018-07-14T03:33:26.266Z,14.58
2018-07-14T03:36:50.669Z,14.87
2018-07-14T03:40:15.157Z,14.93
2018-07-14T03:43:39.580Z,15.05
2018-07-14T03:47:04.065Z,14.60
2018-07-14T03:50:28.530Z,13.25
2018-07-14T03:53:52.996Z,14.63
2018-07-14T03:57:17.655Z,16.17
2018-07-14T04:00:42.112Z,15.58
2018-07-14T04:04:06.585Z,15.00
2018-07-14T04:07:31.031Z,14.93
2018-07-14T04:10:55.494Z,15.65
2018-07-14T04:14:19.958Z,15.50
2018-07-14T04:17:44.379Z,15.25
2018-07-14T04:21:08.801Z,16.70
2018-07-14T04:24:33.247Z,14.87
2018-07-14T04:27:58.200Z,17.07
2018-07-14T04:31:22.594Z,16.45
2018-07-14T04:34:47.406Z,16.42
2018-07-14T04:38:11.795Z,16.75
2018-07-14T04:41:36.232Z,15.32
2018-07-14T04:45:00.689Z,17.95
2018-07-14T04:48:25.106Z,16.15
2018-07-14T04:51:49.511Z,17.05
2018-07-14T04:55:13.920Z,16.52
2018-07-14T04:58:38.437Z,17.20
2018-07-14T05:02:02.859Z,17.45
2018-07-14T05:05:27.271Z,18.32
2018-07-14T05:08:51.712Z,19.48
2018-07-14T05:12:16.124Z,15.93
2018-07-14T05:15:40.561Z,18.35
2018-07-14T05:19:05.007Z,20.70
2018-07-14T05:22:29.426Z,18.17
2018-07-14T05:25:53.847Z,17.90
2018-07-14T05:29:18.258Z,19.10
2018-07-14T05:32:42.743Z,18.05
2018-07-14T05:36:07.195Z,20.72
2018-07-14T05:39:31.629Z,20.60
2018-07-14T05:42:56.102Z,19.50
2018-07-14T05:46:20.550Z,18.67
2018-07-14T05:49:45.002Z,20.05
2018-07-14T05:53:09.431Z,18.45
2018-07-14T05:56:33.893Z,19.87
2018-07-14T05:59:58.375Z,19.42
2018-07-14T06:03:22.861Z,19.15
2018-07-14T06:06:47.288Z,20.57
2018-07-14T06:10:11.718Z,19.77
2018-07-14T06:13:36.229Z,17.95
2018-07-14T06:17:00.719Z,20.02
2018-07-14T06:20:25.200Z,17.02
2018-07-14T06:23:49.658Z,19.27
2018-07-14T06:27:14.327Z,19.42
2018-07-14T06:30:38.809Z,20.45
2018-07-14T06:34:03.359Z,19.20
2018-07-14T06:37:27.852Z,21.37
2018-07-14T06:40:52.343Z,23.70
2018-07-14T06:44:16.810Z,21.15
2018-07-14T06:47:41.311Z,21.57
2018-07-14T06:51:05.802Z,22.98
2018-07-14T06:54:30.295Z,21.77
2018-07-14T06:57:54.922Z,18.60
2018-07-14T07:01:19.319Z,20.27
2018-07-14T07:04:43.961Z,18.57
2018-07-14T07:08:08.744Z,22.50
2018-07-14T07:11:33.175Z,22.22
2018-07-14T07:14:57.713Z,20.55
2018-07-14T07:18:22.166Z,21.70
2018-07-14T07:21:46.604Z,20.30
2018-07-14T07:25:11.067Z,20.35
2018-07-14T07:28:35.480Z,19.20
2018-07-14T07:31:59.979Z,19.50
2018-07-14T07:35:24.417Z,22.65
2018-07-14T07:38:48.908Z,19.80
2018-07-14T07:42:13.444Z,16.85
2018-07-14T07:45:37.897Z,18.07
2018-07-14T07:49:02.400Z,17.07
2018-07-14T07:52:26.958Z,18.00
2018-07-14T07:55:51.383Z,17.52
2018-07-14T07:59:15.888Z,22.55
2018-07-14T08:02:40.356Z,23.15
2018-07-14T08:06:04.839Z,22.37
2018-07-14T08:09:29.320Z,19.37
2018-07-14T08:12:53.748Z,18.17
2018-07-14T08:16:18.179Z,19.75
2018-07-14T08:19:42.706Z,18.98
2018-07-14T08:23:07.163Z,20.12
2018-07-14T08:26:31.630Z,19.37
2018-07-14T08:29:56.092Z,16.73
2018-07-14T08:33:20.620Z,18.52
2018-07-14T08:36:45.046Z,16.10
2018-07-14T08:40:09.481Z,16.65
2018-07-14T08:43:33.925Z,16.23
2018-07-14T08:46:58.403Z,14.23
2018-07-14T08:50:22.830Z,15.30
2018-07-14T08:53:47.302Z,14.95
2018-07-14T08:57:11.730Z,13.10
2018-07-14T09:00:36.181Z,13.10
2018-07-14T09:04:00.654Z,13.60
2018-07-14T09:07:25.078Z,13.58
2018-07-14T09:10:49.510Z,14.65
2018-07-14T09:14:13.965Z,13.70
2018-07-14T09:17:38.375Z,13.90
2018-07-14T09:21:02.819Z,13.53
2018-07-14T09:24:27.250Z,12.37
2018-07-14T09:27:51.703Z,13.55
2018-07-14T09:31:16.200Z,12.68
2018-07-14T09:34:40.736Z,12.50
2018-07-14T09:38:05.298Z,10.35
2018-07-14T09:41:29.708Z,10.35
2018-07-14T09:44:54.172Z,10.18
2018-07-14T09:48:18.699Z,10.68
2018-07-14T09:51:46.194Z,11.75
2018-07-14T09:55:10.690Z,10.48
2018-07-14T09:58:35.202Z,11.53
2018-07-14T10:01:59.373Z,11.12
2018-07-14T10:05:23.823Z,10.88
2018-07-14T10:08:48.272Z,10.13
2018-07-14T10:12:12.713Z,10.72
2018-07-14T10:15:37.160Z,9.20
2018-07-14T10:19:01.601Z,10.38
2018-07-14T10:22:26.028Z,8.20
2018-07-14T10:25:50.652Z,9.53
2018-07-14T10:29:14.920Z,9.58
2018-07-14T10:32:39.383Z,10.68
2018-07-14T10:36:03.834Z,10.25
2018-07-14T10:39:28.288Z,8.98
2018-07-14T10:42:52.726Z,9.23
2018-07-14T10:46:17.236Z,8.43
2018-07-14T10:49:41.677Z,10.25
2018-07-14T10:53:06.200Z,9.18
2018-07-14T10:56:30.671Z,9.90
2018-07-14T10:59:55.121Z,11.18
2018-07-14T11:03:19.587Z,9.00
2018-07-14T11:06:44.141Z,8.85
2018-07-14T11:10:08.597Z,7.90
2018-07-14T11:13:33.018Z,7.25
2018-07-14T11:16:57.500Z,6.17
2018-07-14T11:20:21.968Z,8.88
2018-07-14T11:23:46.408Z,8.05
2018-07-14T11:27:10.899Z,7.00
2018-07-14T11:30:35.358Z,6.70
2018-07-14T11:33:59.945Z,6.70
2018-07-14T11:37:24.418Z,5.90
2018-07-14T11:40:48.869Z,4.90
2018-07-14T11:44:13.369Z,6.83
2018-07-14T11:47:38.155Z,7.10
2018-07-14T11:51:02.576Z,6.78
2018-07-14T11:54:27.048Z,8.20
2018-07-14T11:57:51.488Z,6.55
2018-07-14T12:01:15.998Z,6.12
2018-07-14T12:04:40.511Z,7.20
2018-07-14T12:08:04.992Z,6.97
2018-07-14T12:11:29.448Z,6.58
2018-07-14T12:14:53.954Z,5.97
2018-07-14T12:18:18.427Z,5.08
2018-07-14T12:21:42.924Z,6.47
2018-07-14T12:25:07.371Z,5.08
2018-07-14T12:28:32.082Z,4.20
2018-07-14T12:31:56.576Z,6.17
2018-07-14T12:35:21.023Z,5.55
2018-07-14T12:38:45.451Z,5.72
2018-07-14T12:42:09.955Z,5.00
2018-07-14T12:45:34.416Z,5.67
2018-07-14T12:48:58.863Z,5.50
2018-07-14T12:52:23.318Z,5.22
2018-07-14T12:55:47.768Z,4.90
2018-07-14T12:59:12.214Z,5.03
2018-07-14T13:02:36.707Z,5.37
2018-07-14T13:06:01.231Z,6.75
2018-07-14T13:09:25.634Z,5.20
2018-07-14T13:12:50.075Z,4.55
2018-07-14T13:16:14.509Z,4.40
2018-07-14T13:19:38.942Z,4.95
2018-07-14T13:23:03.410Z,5.60
2018-07-14T13:26:27.870Z,5.10
2018-07-14T13:29:52.330Z,3.77
2018-07-14T13:33:16.742Z,4.35
2018-07-14T13:36:41.220Z,4.17
2018-07-14T13:40:05.665Z,4.53
2018-07-14T13:43:30.123Z,4.47
2018-07-14T13:46:54.560Z,4.12
2018-07-14T13:50:19.029Z,4.60
2018-07-14T13:53:43.507Z,3.98
2018-07-14T13:57:07.983Z,4.67
2018-07-14T14:00:32.455Z,4.30
2018-07-14T14:03:56.915Z,4.00
2018-07-14T14:07:27.525Z,4.28
2018-07-14T14:10:51.982Z,3.90
2018-07-14T14:14:16.438Z,3.85
2018-07-14T14:17:40.935Z,3.52
2018-07-14T14:21:05.368Z,3.60
2018-07-14T14:24:29.816Z,3.40
2018-07-14T14:27:54.250Z,3.72
2018-07-14T14:31:18.710Z,3.58
2018-07-14T14:34:43.161Z,3.20
2018-07-14T14:38:07.722Z,3.75
2018-07-14T14:41:32.223Z,4.00
2018-07-14T14:44:56.700Z,3.33
2018-07-14T14:48:21.199Z,2.85
2018-07-14T14:51:45.651Z,2.98
2018-07-14T14:55:10.127Z,3.00
2018-07-14T14:58:34.607Z,3.50
2018-07-14T15:01:59.072Z,3.12
2018-07-14T15:05:23.499Z,3.52
2018-07-14T15:08:48.007Z,4.30
2018-07-14T15:12:12.447Z,3.45
2018-07-14T15:15:36.882Z,3.42
2018-07-14T15:19:01.322Z,3.50
2018-07-14T15:22:25.730Z,3.35
2018-07-14T15:25:50.187Z,3.08
2018-07-14T15:29:14.614Z,3.27
2018-07-14T15:32:39.097Z,3.22
2018-07-14T15:36:03.475Z,3.12
2018-07-14T15:39:27.943Z,3.10
2018-07-14T15:42:52.383Z,3.30
2018-07-14T15:46:16.828Z,3.65
2018-07-14T15:49:41.306Z,3.65
2018-07-14T15:53:05.766Z,3.47
2018-07-14T15:56:30.252Z,3.37
2018-07-14T15:59:54.693Z,3.33
2018-07-14T16:03:18.842Z,3.10
2018-07-14T16:06:43.301Z,3.10
2018-07-14T16:10:07.735Z,3.55
2018-07-14T16:13:32.187Z,2.80
2018-07-14T16:16:56.635Z,3.27
2018-07-14T16:20:21.063Z,3.40
2018-07-14T16:23:45.576Z,2.92
2018-07-14T16:27:10.502Z,3.87
2018-07-14T16:30:35.105Z,3.17
2018-07-14T16:33:59.544Z,8.38
2018-07-14T16:37:24.004Z,3.20
2018-07-14T16:40:49.135Z,2.58
2018-07-14T16:44:13.525Z,3.08
2018-07-14T16:47:37.998Z,3.08
2018-07-14T16:51:02.465Z,3.47
2018-07-14T16:54:26.906Z,3.62
2018-07-14T16:57:51.376Z,3.12
2018-07-14T17:01:15.846Z,3.60
2018-07-14T17:04:40.311Z,4.72
2018-07-14T17:08:04.772Z,4.55
2018-07-14T17:11:29.232Z,3.40
2018-07-14T17:14:53.676Z,2.95
2018-07-14T17:18:18.148Z,2.65
2018-07-14T17:21:42.584Z,3.22
2018-07-14T17:25:07.091Z,2.55
2018-07-14T17:28:31.556Z,2.62
2018-07-14T17:31:55.996Z,2.72
2018-07-14T17:35:20.446Z,3.30
2018-07-14T17:38:44.896Z,2.87
2018-07-14T17:42:09.386Z,3.05
2018-07-14T17:45:34.013Z,3.12
2018-07-14T17:48:58.439Z,3.08
2018-07-14T17:52:22.619Z,3.47
2018-07-14T17:55:47.079Z,3.40
2018-07-14T17:59:11.620Z,3.10
2018-07-14T18:02:36.093Z,4.17
2018-07-14T18:06:00.554Z,3.83
2018-07-14T18:09:25.046Z,2.85
2018-07-14T18:12:49.494Z,3.15
2018-07-14T18:16:14.029Z,3.27
2018-07-14T18:19:38.544Z,3.20
2018-07-14T18:23:03.131Z,3.17
2018-07-14T18:26:27.579Z,3.40
2018-07-14T18:29:52.030Z,3.45
2018-07-14T18:33:16.552Z,3.40
2018-07-14T18:36:41.027Z,3.30
2018-07-14T18:40:05.567Z,2.60
2018-07-14T18:43:30.077Z,3.10
2018-07-14T18:46:54.599Z,3.20
2018-07-14T18:50:19.080Z,3.15
2018-07-14T18:53:43.546Z,3.22
2018-07-14T18:57:08.087Z,3.72
2018-07-14T19:00:32.544Z,3.02
2018-07-14T19:03:57.061Z,2.80
2018-07-14T19:07:21.523Z,3.15
2018-07-14T19:10:45.959Z,2.58
2018-07-14T19:14:10.446Z,2.30
2018-07-14T19:17:34.908Z,2.92
2018-07-14T19:20:59.416Z,2.30
2018-07-14T19:24:23.839Z,2.70
2018-07-14T19:27:48.301Z,3.42
2018-07-14T19:31:12.454Z,2.80
2018-07-14T19:34:37.036Z,3.08
2018-07-14T19:38:01.445Z,3.15
2018-07-14T19:41:25.916Z,3.15
2018-07-14T19:44:50.323Z,2.85
2018-07-14T19:48:15.579Z,2.62
2018-07-14T19:51:40.025Z,2.22
2018-07-14T19:55:04.603Z,2.60
2018-07-14T19:58:29.096Z,2.62
2018-07-14T20:01:53.539Z,2.77
2018-07-14T20:05:17.964Z,3.02
2018-07-14T20:08:42.391Z,2.75
2018-07-14T20:12:07.040Z,2.70
2018-07-14T20:15:31.458Z,3.08
2018-07-14T20:18:55.943Z,2.77
2018-07-14T20:22:20.399Z,2.83
2018-07-14T20:25:44.806Z,2.95
2018-07-14T20:29:09.280Z,2.80
2018-07-14T20:32:33.709Z,3.00
2018-07-14T20:35:58.164Z,3.52
2018-07-14T20:39:22.616Z,3.50
2018-07-14T20:42:47.085Z,3.77
2018-07-14T20:46:11.565Z,3.80
2018-07-14T20:49:35.996Z,4.15
2018-07-14T20:53:00.434Z,4.03
2018-07-14T20:56:24.917Z,4.03
2018-07-14T20:59:49.379Z,3.08
2018-07-14T21:03:13.869Z,2.77
2018-07-14T21:06:38.311Z,2.87
2018-07-14T21:10:02.833Z,2.83
2018-07-14T21:13:27.324Z,3.10
2018-07-14T21:16:51.842Z,2.30
2018-07-14T21:20:16.259Z,2.30
2018-07-14T21:23:40.730Z,2.80
2018-07-14T21:27:05.452Z,2.40
2018-07-14T21:30:29.914Z,2.17
2018-07-14T21:33:54.403Z,2.55
2018-07-14T21:37:18.845Z,2.72
2018-07-14T21:40:43.309Z,2.83
2018-07-14T21:44:07.764Z,2.55
2018-07-14T21:47:32.185Z,2.70
2018-07-14T21:50:56.632Z,2.87
2018-07-14T21:54:21.118Z,3.00
2018-07-14T21:57:45.615Z,2.85
2018-07-14T22:01:15.464Z,2.70
2018-07-14T22:04:39.930Z,3.10
2018-07-14T22:08:04.429Z,3.30
2018-07-14T22:11:28.936Z,2.67
2018-07-14T22:14:53.463Z,3.37
2018-07-14T22:18:17.922Z,3.75
2018-07-14T22:21:42.365Z,3.50
2018-07-14T22:25:06.808Z,3.30
2018-07-14T22:28:31.261Z,3.58
2018-07-14T22:31:55.708Z,3.35
2018-07-14T22:35:20.187Z,3.60
2018-07-14T22:38:44.619Z,3.22
2018-07-14T22:42:09.078Z,3.17
2018-07-14T22:45:33.570Z,3.22
2018-07-14T22:48:58.006Z,3.15
2018-07-14T22:52:22.416Z,2.77
2018-07-14T22:55:46.841Z,2.67
2018-07-14T22:59:11.300Z,2.95
2018-07-14T23:02:35.713Z,2.90
2018-07-14T23:06:00.161Z,3.22
2018-07-14T23:09:24.610Z,2.92
2018-07-14T23:12:49.038Z,3.25
2018-07-14T23:16:13.571Z,3.02
2018-07-14T23:19:37.984Z,2.77
2018-07-14T23:23:02.415Z,3.02
2018-07-14T23:26:26.835Z,2.92
2018-07-14T23:29:51.270Z,3.50
2018-07-14T23:33:15.751Z,2.60
2018-07-14T23:36:40.241Z,2.58
2018-07-14T23:40:04.887Z,2.90
2018-07-14T23:43:29.344Z,3.17
2018-07-14T23:46:53.814Z,3.55
2018-07-14T23:50:18.220Z,3.45
2018-07-14T23:53:42.693Z,3.37
2018-07-14T23:57:07.708Z,3.60
